createdAt,value
2023-04-01T00:02:04.003Z,99166.06
2023-04-01T00:04:30.619Z,99172.84
2023-04-01T00:06:57.724Z,99170.25
2023-04-01T00:09:24.207Z,99171.03
2023-04-01T00:11:50.967Z,99172.03
2023-04-01T00:14:17.581Z,99173.84
2023-04-01T00:16:44.276Z,99179.59
2023-04-01T00:19:10.717Z,99178.81
2023-04-01T00:21:37.823Z,99192.34
2023-04-01T00:24:04.486Z,99183.78
2023-04-01T00:26:31.170Z,99177.00
2023-04-01T00:28:57.634Z,99180.41
2023-04-01T00:31:24.233Z,99178.25
2023-04-01T00:33:52.479Z,99182.63
2023-04-01T00:36:22.598Z,99183.44
2023-04-01T00:38:50.060Z,99182.84
2023-04-01T00:41:18.062Z,99176.84
2023-04-01T00:43:46.992Z,99187.22
2023-04-01T00:46:13.614Z,99182.03
2023-04-01T00:48:44.489Z,99188.25
2023-04-01T00:51:16.987Z,99187.44
2023-04-01T00:53:47.901Z,99191.06
2023-04-01T00:56:22.126Z,99182.47
2023-04-01T00:58:52.765Z,99187.88
2023-04-01T01:01:22.896Z,99205.22
2023-04-01T01:03:49.434Z,99196.47
2023-04-01T01:06:32.166Z,99198.44
2023-04-01T01:09:26.645Z,99200.03
2023-04-01T01:12:16.999Z,99206.22
2023-04-01T01:15:02.651Z,99205.09
2023-04-01T01:17:42.635Z,99203.06
2023-04-01T01:20:59.049Z,99206.69
2023-04-01T01:23:52.943Z,99201.50
2023-04-01T01:26:41.107Z,99212.66
2023-04-01T01:29:45.665Z,99207.69
2023-04-01T01:32:30.530Z,99207.09
2023-04-01T01:35:22.231Z,99203.91
2023-04-01T01:37:53.316Z,99207.53
2023-04-01T01:40:22.144Z,99212.72
2023-04-01T01:42:53.083Z,99214.69
2023-04-01T01:45:22.580Z,99213.91
2023-04-01T01:47:50.886Z,99209.97
2023-04-01T01:50:18.877Z,99215.38
2023-04-01T01:52:45.377Z,99213.97
2023-04-01T01:55:48.208Z,99221.75
2023-04-01T01:58:17.357Z,99206.41
2023-04-01T02:00:49.930Z,99212.81
2023-04-01T02:03:18.087Z,99219.22
2023-04-01T02:05:45.479Z,99218.44
2023-04-01T02:08:17.915Z,99223.84
2023-04-01T02:10:58.822Z,99231.59
2023-04-01T02:13:55.951Z,99228.63
2023-04-01T02:16:46.330Z,99226.03
2023-04-01T02:19:14.331Z,99227.47
2023-04-01T02:21:42.975Z,99227.47
2023-04-01T02:24:15.020Z,99230.84
2023-04-01T02:26:42.072Z,99227.69
2023-04-01T02:29:10.360Z,99230.06
2023-04-01T02:31:37.373Z,99231.28
2023-04-01T02:34:05.105Z,99238.25
2023-04-01T02:36:32.832Z,99235.09
2023-04-01T02:39:03.360Z,99237.69
2023-04-01T02:41:30.173Z,99240.47
2023-04-01T02:43:58.317Z,99243.28
2023-04-01T02:46:25.732Z,99234.69
2023-04-01T02:48:52.137Z,99239.09
2023-04-01T02:51:18.645Z,99245.25
2023-04-01T02:53:45.252Z,99250.44
2023-04-01T02:56:12.553Z,99246.28
2023-04-01T02:58:39.005Z,99243.91
2023-04-01T03:01:05.508Z,99247.28
2023-04-01T03:03:32.033Z,99249.09
2023-04-01T03:05:59.614Z,99253.28
2023-04-01T03:08:26.042Z,99250.06
2023-04-01T03:10:52.478Z,99252.66
2023-04-01T03:13:18.886Z,99264.63
2023-04-01T03:15:45.433Z,99262.03
2023-04-01T03:18:11.827Z,99252.66
2023-04-01T03:20:38.978Z,99264.84
2023-04-01T03:23:05.347Z,99258.06
2023-04-01T03:25:32.713Z,99261.66
2023-04-01T03:28:00.540Z,99271.81
2023-04-01T03:30:27.351Z,99270.78
2023-04-01T03:32:53.864Z,99276.56
2023-04-01T03:35:20.376Z,99283.53
2023-04-01T03:37:46.860Z,99287.16
2023-04-01T03:40:13.873Z,99292.31
2023-04-01T03:42:40.426Z,99290.72
2023-04-01T03:45:07.384Z,99288.94
2023-04-01T03:47:34.008Z,99289.94
2023-04-01T03:50:00.792Z,99290.72
2023-04-01T03:52:27.451Z,99294.31
2023-04-01T03:54:54.058Z,99298.50
2023-04-01T03:57:20.560Z,99296.91
2023-04-01T03:59:47.019Z,99298.28
2023-04-01T04:02:13.474Z,99301.09
2023-04-01T04:04:40.184Z,99301.09
2023-04-01T04:07:06.675Z,99310.47
2023-04-01T04:09:33.144Z,99315.44
2023-04-01T04:11:59.941Z,99318.03
2023-04-01T04:14:26.537Z,99325.78
2023-04-01T04:16:53.026Z,99326.78
2023-04-01T04:19:19.466Z,99320.81
2023-04-01T04:21:45.927Z,99330.97
2023-04-01T04:24:12.381Z,99334.91
2023-04-01T04:26:38.837Z,99334.91
2023-04-01T04:29:05.364Z,99337.50
2023-04-01T04:31:31.800Z,99346.88
2023-04-01T04:34:00.800Z,99348.25
2023-04-01T04:36:27.808Z,99348.25
2023-04-01T04:38:54.239Z,99355.03
2023-04-01T04:41:23.028Z,99356.41
2023-04-01T04:43:53.582Z,99363.38
2023-04-01T04:46:20.639Z,99368.34
2023-04-01T04:48:47.213Z,99367.34
2023-04-01T04:51:16.459Z,99370.72
2023-04-01T04:53:42.962Z,99373.13
2023-04-01T04:56:09.457Z,99382.47
2023-04-01T04:58:36.366Z,99386.44
2023-04-01T05:01:07.870Z,99389.84
2023-04-01T05:03:34.444Z,99388.25
2023-04-01T05:06:00.979Z,99393.00
2023-04-01T05:08:27.386Z,99398.78
2023-04-01T05:10:53.748Z,99400.38
2023-04-01T05:13:20.197Z,99411.31
2023-04-01T05:15:46.569Z,99407.72
2023-04-01T05:18:12.981Z,99416.09
2023-04-01T05:20:39.491Z,99421.28
2023-04-01T05:23:05.921Z,99422.06
2023-04-01T05:25:32.626Z,99428.84
2023-04-01T05:27:59.246Z,99424.44
2023-04-01T05:30:25.651Z,99428.84
2023-04-01T05:32:52.259Z,99434.81
2023-04-01T05:35:18.659Z,99440.59
2023-04-01T05:37:45.291Z,99444.19
2023-04-01T05:40:12.023Z,99440.59
2023-04-01T05:42:38.617Z,99447.56
2023-04-01T05:45:05.655Z,99455.13
2023-04-01T05:47:32.143Z,99463.47
2023-04-01T05:49:58.619Z,99469.47
2023-04-01T05:52:25.179Z,99472.28
2023-04-01T05:54:52.118Z,99466.88
2023-04-01T05:57:18.622Z,99470.25
2023-04-01T05:59:45.506Z,99471.84
2023-04-01T06:02:12.074Z,99474.44
2023-04-01T06:04:40.274Z,99476.84
2023-04-01T06:07:12.929Z,99495.75
2023-04-01T06:09:39.980Z,99485.41
2023-04-01T06:12:46.084Z,99497.38
2023-04-01T06:15:26.474Z,99497.38
2023-04-01T06:18:20.542Z,99499.75
2023-04-01T06:21:07.542Z,99505.72
2023-04-01T06:23:41.787Z,99512.50
2023-04-01T06:26:31.644Z,99515.09
2023-04-01T06:29:16.306Z,99508.91
2023-04-01T06:32:07.843Z,99523.25
2023-04-01T06:34:56.262Z,99523.84
2023-04-01T06:38:02.860Z,99527.41
2023-04-01T06:41:03.480Z,99530.41
2023-04-01T06:43:51.861Z,99549.13
2023-04-01T06:46:36.742Z,99543.53
2023-04-01T06:49:16.669Z,99550.09
2023-04-01T06:52:03.282Z,99557.09
2023-04-01T06:54:37.777Z,99552.28
2023-04-01T06:57:29.757Z,99564.03
2023-04-01T07:00:00.689Z,99568.00
2023-04-01T07:02:37.478Z,99567.81
2023-04-01T07:05:05.613Z,99581.78
2023-04-01T07:07:46.418Z,99584.75
2023-04-01T07:10:24.777Z,99584.34
2023-04-01T07:12:55.845Z,99585.50
2023-04-01T07:15:29.196Z,99594.69
2023-04-01T07:18:02.909Z,99595.25
2023-04-01T07:20:32.943Z,99601.25
2023-04-01T07:23:02.402Z,99604.22
2023-04-01T07:25:36.425Z,99605.81
2023-04-01T07:28:12.862Z,99610.78
2023-04-01T07:30:45.422Z,99611.59
2023-04-01T07:33:26.509Z,99619.19
2023-04-01T07:36:08.308Z,99624.38
2023-04-01T07:38:47.007Z,99621.56
2023-04-01T07:41:26.715Z,99631.53
2023-04-01T07:44:07.042Z,99636.72
2023-04-01T07:46:45.795Z,99649.69
2023-04-01T07:49:18.324Z,99636.94
2023-04-01T07:52:01.108Z,99647.31
2023-04-01T07:54:47.716Z,99645.88
2023-04-01T07:57:22.116Z,99657.03
2023-04-01T08:00:08.768Z,99666.00
2023-04-01T08:03:03.817Z,99663.41
2023-04-01T08:05:44.484Z,99668.41
2023-04-01T08:08:11.633Z,99674.97
2023-04-01T08:10:50.538Z,99680.16
2023-04-01T08:13:35.792Z,99684.13
2023-04-01T08:16:11.668Z,99691.72
2023-04-01T08:18:46.991Z,99690.13
2023-04-01T08:21:28.818Z,99694.94
2023-04-01T08:24:00.440Z,99694.34
2023-04-01T08:26:33.980Z,99699.75
2023-04-01T08:29:11.441Z,99714.53
2023-04-01T08:31:58.092Z,99718.47
2023-04-01T08:34:29.795Z,99725.28
2023-04-01T08:37:03.676Z,99723.25
2023-04-01T08:39:38.487Z,99731.22
2023-04-01T08:42:20.047Z,99723.03
2023-04-01T08:45:13.803Z,99731.19
2023-04-01T08:47:59.157Z,99734.81
2023-04-01T08:50:47.565Z,99735.38
2023-04-01T08:53:55.463Z,99742.78
2023-04-01T08:56:31.527Z,99751.13
2023-04-01T08:59:27.193Z,99754.09
2023-04-01T09:02:26.017Z,99757.47
2023-04-01T09:05:27.604Z,99760.03
2023-04-01T09:08:27.483Z,99760.63
2023-04-01T09:11:12.106Z,99777.03
2023-04-01T09:14:21.063Z,99771.41
2023-04-01T09:17:10.744Z,99781.19
2023-04-01T09:19:52.096Z,99781.59
2023-04-01T09:22:56.926Z,99780.00
2023-04-01T09:25:26.482Z,99789.53
2023-04-01T09:28:11.520Z,99784.28
2023-04-01T09:31:02.830Z,99787.63
2023-04-01T09:33:44.432Z,99787.97
2023-04-01T09:36:19.870Z,99796.53
2023-04-01T09:38:58.561Z,99797.06
2023-04-01T09:41:33.901Z,99804.00
2023-04-01T09:44:17.212Z,99808.59
2023-04-01T09:46:56.304Z,99810.22
2023-04-01T09:49:43.375Z,99814.16
2023-04-01T09:52:22.010Z,99812.31
2023-04-01T09:55:09.816Z,99808.44
2023-04-01T09:57:56.815Z,99819.84
2023-04-01T10:00:48.037Z,99818.94
2023-04-01T10:03:20.423Z,99821.88
2023-04-01T10:06:16.272Z,99825.84
2023-04-01T10:09:19.993Z,99820.44
2023-04-01T10:12:01.870Z,99822.78
2023-04-01T10:14:56.756Z,99829.47
2023-04-01T10:18:06.174Z,99837.28
2023-04-01T10:20:49.317Z,99836.91
2023-04-01T10:23:37.594Z,99846.59
2023-04-01T10:26:46.254Z,99849.00
2023-04-01T10:29:42.374Z,99848.56
2023-04-01T10:32:17.140Z,99845.09
2023-04-01T10:35:09.321Z,99850.28
2023-04-01T10:37:56.993Z,99852.75
2023-04-01T10:41:11.243Z,99856.19
2023-04-01T10:44:02.584Z,99864.41
2023-04-01T10:47:07.550Z,99871.78
2023-04-01T10:50:11.389Z,99860.44
2023-04-01T10:53:13.247Z,99865.84
2023-04-01T10:55:54.835Z,99867.28
2023-04-01T10:58:53.614Z,99871.41
2023-04-01T11:01:41.060Z,99871.56
2023-04-01T11:04:23.987Z,99876.28
2023-04-01T11:07:17.285Z,99885.59
2023-04-01T11:09:55.781Z,99881.09
2023-04-01T11:12:49.954Z,99891.00
2023-04-01T11:15:36.422Z,99893.66
2023-04-01T11:18:30.687Z,99897.03
2023-04-01T11:21:26.618Z,99900.84
2023-04-01T11:24:17.582Z,99900.13
2023-04-01T11:27:10.200Z,99908.13
2023-04-01T11:30:00.280Z,99908.78
2023-04-01T11:32:49.056Z,99914.81
2023-04-01T11:35:39.764Z,99924.94
2023-04-01T11:38:32.024Z,99930.72
2023-04-01T11:41:18.078Z,99927.06
2023-04-01T11:44:02.143Z,99930.06
2023-04-01T11:46:39.558Z,99937.28
2023-04-01T11:49:31.792Z,99941.81
2023-04-01T11:52:04.985Z,99950.66
2023-04-01T11:55:09.208Z,99946.31
2023-04-01T11:57:54.733Z,99949.63
2023-04-01T12:00:27.209Z,99951.94
2023-04-01T12:03:23.653Z,99962.09
2023-04-01T12:06:09.741Z,99969.94
2023-04-01T12:08:55.617Z,99966.63
2023-04-01T12:11:34.126Z,99968.69
2023-04-01T12:14:18.701Z,99972.53
2023-04-01T12:17:01.768Z,99974.75
2023-04-01T12:19:37.344Z,99982.84
2023-04-01T12:22:36.298Z,99988.41
2023-04-01T12:25:23.716Z,99985.16
2023-04-01T12:28:01.571Z,99992.19
2023-04-01T12:30:54.404Z,99997.63
2023-04-01T12:33:53.706Z,99991.63
2023-04-01T12:36:27.125Z,99996.78
2023-04-01T12:39:21.327Z,100004.03
2023-04-01T12:42:12.572Z,100013.47
2023-04-01T12:44:51.654Z,100007.00
2023-04-01T12:47:43.902Z,100010.94
2023-04-01T12:50:22.959Z,100006.88
2023-04-01T12:53:07.389Z,100017.28
2023-04-01T12:55:42.547Z,100020.16
2023-04-01T12:58:45.204Z,100017.47
2023-04-01T13:01:29.461Z,100021.50
2023-04-01T13:04:14.535Z,100028.91
2023-04-01T13:07:12.194Z,100028.75
2023-04-01T13:10:03.540Z,100033.41
2023-04-01T13:12:36.049Z,100044.31
2023-04-01T13:15:16.241Z,100039.59
2023-04-01T13:18:04.764Z,100045.41
2023-04-01T13:20:44.567Z,100053.78
2023-04-01T13:23:48.638Z,100056.28
2023-04-01T13:26:22.005Z,100060.94
2023-04-01T13:29:01.927Z,100062.59
2023-04-01T13:31:49.058Z,100065.06
2023-04-01T13:34:44.032Z,100072.88
2023-04-01T13:37:24.014Z,100067.50
2023-04-01T13:40:06.978Z,100073.94
2023-04-01T13:42:45.781Z,100072.91
2023-04-01T13:45:22.274Z,100077.94
2023-04-01T13:47:54.860Z,100087.75
2023-04-01T13:50:58.611Z,100084.56
2023-04-01T13:53:56.528Z,100086.44
2023-04-01T13:56:49.253Z,100079.81
2023-04-01T14:00:04.305Z,100100.09
2023-04-01T14:02:42.578Z,100108.13
2023-04-01T14:05:42.038Z,100114.59
2023-04-01T14:08:42.281Z,100116.19
2023-04-01T14:11:36.487Z,100126.16
2023-04-01T14:14:09.871Z,100123.78
2023-04-01T14:16:58.530Z,100136.56
2023-04-01T14:19:32.041Z,100141.56
2023-04-01T14:22:16.665Z,100138.56
2023-04-01T14:25:01.739Z,100141.53
2023-04-01T14:27:36.178Z,100147.69
2023-04-01T14:30:08.718Z,100161.06
2023-04-01T14:32:59.931Z,100160.28
2023-04-01T14:35:36.884Z,100164.03
2023-04-01T14:38:34.762Z,100167.84
2023-04-01T14:41:34.553Z,100174.59
2023-04-01T14:44:34.670Z,100180.19
2023-04-01T14:47:04.062Z,100191.59
2023-04-01T14:49:37.996Z,100187.00
2023-04-01T14:52:36.796Z,100196.59
2023-04-01T14:55:31.016Z,100209.56
2023-04-01T14:58:27.225Z,100217.34
2023-04-01T15:01:23.102Z,100216.34
2023-04-01T15:04:35.398Z,100225.91
2023-04-01T15:07:39.845Z,100230.91
2023-04-01T15:10:22.644Z,100231.91
2023-04-01T15:13:15.798Z,100239.50
2023-04-01T15:16:23.877Z,100245.91
2023-04-01T15:19:08.451Z,100249.69
2023-04-01T15:21:56.663Z,100252.50
2023-04-01T15:25:01.894Z,100258.09
2023-04-01T15:27:56.326Z,100274.28
2023-04-01T15:31:00.348Z,100264.88
2023-04-01T15:33:49.289Z,100282.25
2023-04-01T15:36:29.782Z,100277.84
2023-04-01T15:39:17.953Z,100294.59
2023-04-01T15:42:03.921Z,100295.59
2023-04-01T15:44:31.475Z,100299.78
2023-04-01T15:46:59.259Z,100304.16
2023-04-01T15:49:43.257Z,100319.16
2023-04-01T15:52:44.761Z,100318.28
2023-04-01T15:55:20.601Z,100330.63
2023-04-01T15:58:05.948Z,100328.38
2023-04-01T16:00:59.785Z,100329.72
2023-04-01T16:03:40.852Z,100335.50
2023-04-01T16:06:35.156Z,100351.44
2023-04-01T16:09:01.592Z,100352.59
2023-04-01T16:11:43.247Z,100363.16
2023-04-01T16:14:47.504Z,100361.78
2023-04-01T16:17:38.348Z,100369.94
2023-04-01T16:20:18.666Z,100371.09
2023-04-01T16:23:05.427Z,100384.59
2023-04-01T16:25:41.056Z,100392.34
2023-04-01T16:28:35.308Z,100391.50
2023-04-01T16:31:11.289Z,100402.22
2023-04-01T16:33:50.029Z,100402.97
2023-04-01T16:36:47.520Z,100405.31
2023-04-01T16:39:41.637Z,100408.44
2023-04-01T16:42:07.979Z,100414.59
2023-04-01T16:44:50.654Z,100431.94
2023-04-01T16:47:23.147Z,100428.38
2023-04-01T16:49:59.287Z,100441.53
2023-04-01T16:53:16.808Z,100441.25
2023-04-01T16:55:49.135Z,100451.19
2023-04-01T16:58:23.998Z,100458.44
2023-04-01T17:00:56.357Z,100464.34
2023-04-01T17:03:30.646Z,100470.22
2023-04-01T17:06:06.461Z,100474.19
2023-04-01T17:09:17.060Z,100484.38
2023-04-01T17:11:56.577Z,100493.91
2023-04-01T17:14:31.881Z,100511.25
2023-04-01T17:17:09.441Z,100514.81
2023-04-01T17:19:47.274Z,100515.81
2023-04-01T17:22:25.964Z,100527.31
2023-04-01T17:25:09.043Z,100519.53
2023-04-01T17:28:06.340Z,100537.50
2023-04-01T17:30:55.755Z,100539.28
2023-04-01T17:33:46.644Z,100541.28
2023-04-01T17:36:51.208Z,100551.97
2023-04-01T17:39:48.896Z,100563.47
2023-04-01T17:42:56.277Z,100563.84
2023-04-01T17:45:44.648Z,100571.78
2023-04-01T17:48:42.774Z,100577.13
2023-04-01T17:51:32.436Z,100585.06
2023-04-01T17:54:06.828Z,100592.22
2023-04-01T17:57:03.928Z,100602.75
2023-04-01T17:59:40.535Z,100611.88
2023-04-01T18:02:36.885Z,100607.84
2023-04-01T18:05:27.370Z,100626.31
2023-04-01T18:07:59.872Z,100622.09
2023-04-01T18:10:36.882Z,100634.06
2023-04-01T18:13:36.513Z,100636.03
2023-04-01T18:16:12.190Z,100655.13
2023-04-01T18:18:50.737Z,100657.25
2023-04-01T18:21:28.926Z,100664.38
2023-04-01T18:24:09.231Z,100657.91
2023-04-01T18:26:39.249Z,100674.59
2023-04-01T18:29:25.026Z,100670.56
2023-04-01T18:32:20.809Z,100690.47
2023-04-01T18:34:55.170Z,100694.03
2023-04-01T18:37:40.214Z,100696.00
2023-04-01T18:40:27.360Z,100706.53
2023-04-01T18:43:13.720Z,100711.06
2023-04-01T18:46:03.751Z,100724.19
2023-04-01T18:48:36.570Z,100730.81
2023-04-01T18:51:35.453Z,100732.78
2023-04-01T18:54:12.130Z,100742.34
2023-04-01T18:56:40.980Z,100752.69
2023-04-01T18:59:13.296Z,100753.66
2023-04-01T19:01:53.670Z,100764.97
2023-04-01T19:04:44.247Z,100770.97
2023-04-01T19:07:48.809Z,100777.91
2023-04-01T19:10:40.056Z,100775.31
2023-04-01T19:13:28.338Z,100785.03
2023-04-01T19:16:27.319Z,100787.44
2023-04-01T19:19:08.854Z,100790.53
2023-04-01T19:21:44.469Z,100796.03
2023-04-01T19:24:29.074Z,100810.94
2023-04-01T19:27:30.302Z,100814.00
2023-04-01T19:30:18.258Z,100816.94
2023-04-01T19:33:29.780Z,100833.41
2023-04-01T19:36:12.423Z,100835.53
2023-04-01T19:38:42.672Z,100841.03
2023-04-01T19:41:31.224Z,100854.13
2023-04-01T19:44:24.340Z,100850.75
2023-04-01T19:46:56.560Z,100857.69
2023-04-01T19:49:28.976Z,100865.00
2023-04-01T19:51:58.499Z,100871.28
2023-04-01T19:54:40.327Z,100867.22
2023-04-01T19:57:18.077Z,100887.91
2023-04-01T20:00:04.961Z,100891.66
2023-04-01T20:02:51.862Z,100890.66
2023-04-01T20:05:27.608Z,100904.91
2023-04-01T20:08:03.572Z,100907.81
2023-04-01T20:10:46.082Z,100915.72
2023-04-01T20:13:33.827Z,100911.50
2023-04-01T20:16:06.856Z,100933.81
2023-04-01T20:19:01.430Z,100933.81
2023-04-01T20:21:31.625Z,100935.06
2023-04-01T20:24:19.273Z,100948.16
2023-04-01T20:26:51.729Z,100958.00
2023-04-01T20:29:38.504Z,100956.38
2023-04-01T20:32:07.335Z,100972.06
2023-04-01T20:35:01.704Z,100974.13
2023-04-01T20:37:47.967Z,100985.78
2023-04-01T20:40:39.739Z,100988.66
2023-04-01T20:43:31.670Z,100993.03
2023-04-01T20:46:04.744Z,101007.72
2023-04-01T20:48:53.374Z,101005.28
2023-04-01T20:51:25.720Z,101017.56
2023-04-01T20:54:01.179Z,101013.19
2023-04-01T20:56:34.050Z,101018.34
2023-04-01T20:59:29.149Z,101036.44
2023-04-01T21:02:12.299Z,101033.22
2023-04-01T21:05:07.970Z,101035.94
2023-04-01T21:08:06.101Z,101044.31
2023-04-01T21:10:41.102Z,101051.88
2023-04-01T21:13:38.630Z,101049.88
2023-04-01T21:16:26.580Z,101058.28
2023-04-01T21:19:26.614Z,101065.47
2023-04-01T21:22:28.390Z,101069.81
2023-04-01T21:25:22.650Z,101081.38
2023-04-01T21:28:22.743Z,101089.06
2023-04-01T21:30:59.005Z,101091.28
2023-04-01T21:33:46.063Z,101103.69
2023-04-01T21:36:37.589Z,101106.72
2023-04-01T21:39:36.737Z,101110.53
2023-04-01T21:42:27.149Z,101116.03
2023-04-01T21:45:24.584Z,101127.28
2023-04-01T21:48:17.422Z,101131.13
2023-04-01T21:51:21.514Z,101141.06
2023-04-01T21:54:06.071Z,101145.56
2023-04-01T21:56:44.751Z,101145.88
2023-04-01T21:59:40.619Z,101160.41
2023-04-01T22:02:14.718Z,101156.47
2023-04-01T22:05:04.478Z,101156.47
2023-04-01T22:07:43.321Z,101172.94
2023-04-01T22:10:42.482Z,101164.50
2023-04-01T22:13:31.974Z,101174.03
2023-04-01T22:16:12.254Z,101178.38
2023-04-01T22:18:47.310Z,101192.22
2023-04-01T22:21:24.835Z,101194.13
2023-04-01T22:24:02.117Z,101207.31
2023-04-01T22:26:38.894Z,101206.94
2023-04-01T22:29:27.131Z,101212.25
2023-04-01T22:32:01.882Z,101214.13
2023-04-01T22:34:48.576Z,101215.25
2023-04-01T22:37:39.245Z,101221.50
2023-04-01T22:40:23.605Z,101226.91
2023-04-01T22:43:11.651Z,101231.41
2023-04-01T22:45:56.750Z,101235.06
2023-04-01T22:48:52.913Z,101243.78
2023-04-01T22:51:28.938Z,101242.00
2023-04-01T22:54:11.396Z,101255.69
2023-04-01T22:56:41.425Z,101257.59
2023-04-01T22:59:40.276Z,101256.00
2023-04-01T23:02:48.470Z,101265.75
2023-04-01T23:05:19.990Z,101267.81
2023-04-01T23:08:14.221Z,101276.34
2023-04-01T23:10:46.397Z,101273.13
2023-04-01T23:13:22.425Z,101278.41
2023-04-01T23:15:49.237Z,101290.50
2023-04-01T23:18:18.509Z,101290.63
2023-04-01T23:21:03.250Z,101295.13
2023-04-01T23:23:54.558Z,101303.78
2023-04-01T23:26:37.323Z,101302.16
2023-04-01T23:29:06.890Z,101312.59
2023-04-01T23:31:37.040Z,101310.19
2023-04-01T23:34:25.668Z,101326.88
2023-04-01T23:36:56.400Z,101324.44
2023-04-01T23:39:40.947Z,101330.66
2023-04-01T23:42:20.762Z,101339.22
2023-04-01T23:44:49.906Z,101335.03
2023-04-01T23:47:32.175Z,101339.38
2023-04-01T23:50:04.401Z,101348.84
2023-04-01T23:52:35.902Z,101345.31
2023-04-01T23:55:14.310Z,101355.09
2023-04-01T23:57:40.881Z,101357.69
